sensor_id;sensor_type;location;lat;lon;timestamp;P1;durP1;ratioP1;P2;durP2;ratioP2
66129;SDS011;52930;51.464;11.764;2022-08-04T00:00:07;10.85;;;2.78;;
66129;SDS011;52930;51.464;11.764;2022-08-04T00:02:58;8.00;;;3.08;;
66129;SDS011;52930;51.464;11.764;2022-08-04T00:11:11;6.43;;;2.70;;
66129;SDS011;52930;51.464;11.764;2022-08-04T00:16:42;7.22;;;3.03;;
66129;SDS011;52930;51.464;11.764;2022-08-04T00:19:16;6.88;;;3.13;;
66129;SDS011;52930;51.464;11.764;2022-08-04T00:21:51;10.45;;;3.13;;
66129;SDS011;52930;51.464;11.764;2022-08-04T00:24:20;9.37;;;3.33;;
66129;SDS011;52930;51.464;11.764;2022-08-04T00:26:46;8.80;;;2.75;;
66129;SDS011;52930;51.464;11.764;2022-08-04T00:29:11;8.43;;;3.47;;
66129;SDS011;52930;51.464;11.764;2022-08-04T00:31:37;8.70;;;3.38;;
66129;SDS011;52930;51.464;11.764;2022-08-04T00:34:02;7.93;;;3.00;;
66129;SDS011;52930;51.464;11.764;2022-08-04T00:36:28;9.67;;;2.90;;
66129;SDS011;52930;51.464;11.764;2022-08-04T00:38:54;6.57;;;3.08;;
66129;SDS011;52930;51.464;11.764;2022-08-04T00:47:16;7.47;;;3.07;;
66129;SDS011;52930;51.464;11.764;2022-08-04T01:00:13;6.07;;;2.83;;
66129;SDS011;52930;51.464;11.764;2022-08-04T01:11:15;8.73;;;2.90;;
66129;SDS011;52930;51.464;11.764;2022-08-04T01:16:47;8.43;;;3.35;;
66129;SDS011;52930;51.464;11.764;2022-08-04T01:19:40;5.88;;;2.80;;
66129;SDS011;52930;51.464;11.764;2022-08-04T01:22:17;8.35;;;3.28;;
66129;SDS011;52930;51.464;11.764;2022-08-04T01:28:05;8.43;;;3.13;;
66129;SDS011;52930;51.464;11.764;2022-08-04T01:30:35;8.23;;;3.00;;
66129;SDS011;52930;51.464;11.764;2022-08-04T01:33:03;10.45;;;3.72;;
66129;SDS011;52930;51.464;11.764;2022-08-04T01:35:34;7.93;;;3.17;;
66129;SDS011;52930;51.464;11.764;2022-08-04T01:38:12;8.18;;;3.05;;
66129;SDS011;52930;51.464;11.764;2022-08-04T01:40:41;9.60;;;3.63;;
66129;SDS011;52930;51.464;11.764;2022-08-04T01:43:08;8.68;;;3.30;;
66129;SDS011;52930;51.464;11.764;2022-08-04T01:45:35;11.37;;;3.43;;
66129;SDS011;52930;51.464;11.764;2022-08-04T01:48:02;9.30;;;3.20;;
66129;SDS011;52930;51.464;11.764;2022-08-04T01:50:28;7.97;;;2.97;;
66129;SDS011;52930;51.464;11.764;2022-08-04T01:52:57;12.98;;;3.80;;
66129;SDS011;52930;51.464;11.764;2022-08-04T01:55:23;9.87;;;3.97;;
66129;SDS011;52930;51.464;11.764;2022-08-04T01:57:49;7.93;;;3.03;;
66129;SDS011;52930;51.464;11.764;2022-08-04T02:00:17;13.45;;;4.03;;
66129;SDS011;52930;51.464;11.764;2022-08-04T02:02:45;10.98;;;3.80;;
66129;SDS011;52930;51.464;11.764;2022-08-04T02:05:14;8.00;;;3.60;;
66129;SDS011;52930;51.464;11.764;2022-08-04T02:10:28;8.38;;;3.75;;
66129;SDS011;52930;51.464;11.764;2022-08-04T02:13:02;11.93;;;3.97;;
66129;SDS011;52930;51.464;11.764;2022-08-04T02:18:40;7.15;;;3.30;;
66129;SDS011;52930;51.464;11.764;2022-08-04T02:21:17;7.63;;;3.57;;
66129;SDS011;52930;51.464;11.764;2022-08-04T02:23:43;9.15;;;3.72;;
66129;SDS011;52930;51.464;11.764;2022-08-04T02:26:20;14.10;;;3.65;;
66129;SDS011;52930;51.464;11.764;2022-08-04T02:28:53;13.15;;;3.90;;
66129;SDS011;52930;51.464;11.764;2022-08-04T02:31:31;10.55;;;3.70;;
66129;SDS011;52930;51.464;11.764;2022-08-04T02:36:42;7.13;;;3.75;;
66129;SDS011;52930;51.464;11.764;2022-08-04T02:39:11;8.98;;;3.67;;
66129;SDS011;52930;51.464;11.764;2022-08-04T02:41:38;8.25;;;3.65;;
66129;SDS011;52930;51.464;11.764;2022-08-04T02:44:05;8.90;;;3.80;;
66129;SDS011;52930;51.464;11.764;2022-08-04T02:46:33;12.02;;;4.20;;
66129;SDS011;52930;51.464;11.764;2022-08-04T02:49:07;11.13;;;3.75;;
66129;SDS011;52930;51.464;11.764;2022-08-04T02:51:34;9.88;;;4.00;;
66129;SDS011;52930;51.464;11.764;2022-08-04T02:54:07;8.15;;;3.95;;
66129;SDS011;52930;51.464;11.764;2022-08-04T02:56:34;10.20;;;3.73;;
66129;SDS011;52930;51.464;11.764;2022-08-04T02:59:02;7.47;;;3.63;;
66129;SDS011;52930;51.464;11.764;2022-08-04T03:01:29;9.40;;;3.80;;
66129;SDS011;52930;51.464;11.764;2022-08-04T03:04:01;8.88;;;4.07;;
66129;SDS011;52930;51.464;11.764;2022-08-04T03:15:18;11.93;;;4.22;;
66129;SDS011;52930;51.464;11.764;2022-08-04T03:17:58;12.40;;;3.92;;
66129;SDS011;52930;51.464;11.764;2022-08-04T03:20:47;8.77;;;3.50;;
66129;SDS011;52930;51.464;11.764;2022-08-04T03:34:42;13.48;;;4.25;;
66129;SDS011;52930;51.464;11.764;2022-08-04T03:40:27;9.00;;;4.13;;
66129;SDS011;52930;51.464;11.764;2022-08-04T03:49:17;11.73;;;4.20;;
66129;SDS011;52930;51.464;11.764;2022-08-04T03:57:57;10.75;;;4.40;;
66129;SDS011;52930;51.464;11.764;2022-08-04T04:00:38;10.55;;;4.07;;
66129;SDS011;52930;51.464;11.764;2022-08-04T04:09:20;10.15;;;4.32;;
66129;SDS011;52930;51.464;11.764;2022-08-04T04:20:28;9.13;;;4.10;;
66129;SDS011;52930;51.464;11.764;2022-08-04T04:23:13;10.38;;;4.45;;
66129;SDS011;52930;51.464;11.764;2022-08-04T04:34:22;9.67;;;4.13;;
66129;SDS011;52930;51.464;11.764;2022-08-04T04:40:14;9.27;;;3.70;;
66129;SDS011;52930;51.464;11.764;2022-08-04T04:48:49;9.77;;;3.43;;
66129;SDS011;52930;51.464;11.764;2022-08-04T04:51:34;10.43;;;3.60;;
66129;SDS011;52930;51.464;11.764;2022-08-04T04:56:36;9.70;;;3.88;;
66129;SDS011;52930;51.464;11.764;2022-08-04T04:59:07;11.77;;;3.97;;
66129;SDS011;52930;51.464;11.764;2022-08-04T05:07:09;11.00;;;3.95;;
66129;SDS011;52930;51.464;11.764;2022-08-04T05:09:50;8.63;;;3.92;;
66129;SDS011;52930;51.464;11.764;2022-08-04T05:12:39;13.13;;;4.00;;
66129;SDS011;52930;51.464;11.764;2022-08-04T05:15:06;9.03;;;3.80;;
66129;SDS011;52930;51.464;11.764;2022-08-04T05:17:34;12.75;;;3.80;;
66129;SDS011;52930;51.464;11.764;2022-08-04T05:20:06;14.88;;;3.92;;
66129;SDS011;52930;51.464;11.764;2022-08-04T05:22:44;9.45;;;3.70;;
66129;SDS011;52930;51.464;11.764;2022-08-04T05:25:21;13.27;;;4.47;;
66129;SDS011;52930;51.464;11.764;2022-08-04T05:30:35;12.23;;;4.00;;
66129;SDS011;52930;51.464;11.764;2022-08-04T05:33:12;13.77;;;4.25;;
66129;SDS011;52930;51.464;11.764;2022-08-04T05:35:44;7.57;;;3.35;;
66129;SDS011;52930;51.464;11.764;2022-08-04T05:38:11;11.15;;;4.07;;
66129;SDS011;52930;51.464;11.764;2022-08-04T05:40:39;9.97;;;3.83;;
66129;SDS011;52930;51.464;11.764;2022-08-04T05:43:05;12.32;;;4.10;;
66129;SDS011;52930;51.464;11.764;2022-08-04T05:45:32;14.67;;;3.80;;
66129;SDS011;52930;51.464;11.764;2022-08-04T05:47:58;11.18;;;3.58;;
66129;SDS011;52930;51.464;11.764;2022-08-04T05:50:25;10.63;;;3.45;;
66129;SDS011;52930;51.464;11.764;2022-08-04T05:52:51;11.63;;;3.80;;
66129;SDS011;52930;51.464;11.764;2022-08-04T05:55:17;10.10;;;3.88;;
66129;SDS011;52930;51.464;11.764;2022-08-04T05:57:43;10.43;;;3.42;;
66129;SDS011;52930;51.464;11.764;2022-08-04T06:00:12;10.27;;;4.07;;
66129;SDS011;52930;51.464;11.764;2022-08-04T06:02:37;13.38;;;3.85;;
66129;SDS011;52930;51.464;11.764;2022-08-04T06:05:04;10.33;;;4.00;;
66129;SDS011;52930;51.464;11.764;2022-08-04T06:07:31;9.20;;;3.10;;
66129;SDS011;52930;51.464;11.764;2022-08-04T06:09:57;13.57;;;3.97;;
66129;SDS011;52930;51.464;11.764;2022-08-04T06:12:26;6.40;;;3.10;;
66129;SDS011;52930;51.464;11.764;2022-08-04T06:14:55;9.90;;;3.40;;
66129;SDS011;52930;51.464;11.764;2022-08-04T06:17:32;9.53;;;3.30;;
66129;SDS011;52930;51.464;11.764;2022-08-04T06:20:00;10.25;;;3.60;;
66129;SDS011;52930;51.464;11.764;2022-08-04T06:22:26;10.35;;;3.67;;
66129;SDS011;52930;51.464;11.764;2022-08-04T06:24:53;6.57;;;3.13;;
66129;SDS011;52930;51.464;11.764;2022-08-04T06:27:19;10.18;;;3.35;;
66129;SDS011;52930;51.464;11.764;2022-08-04T06:29:46;8.23;;;3.13;;
66129;SDS011;52930;51.464;11.764;2022-08-04T06:32:12;11.02;;;3.38;;
66129;SDS011;52930;51.464;11.764;2022-08-04T06:34:57;9.85;;;3.30;;
66129;SDS011;52930;51.464;11.764;2022-08-04T06:37:26;7.32;;;2.97;;
66129;SDS011;52930;51.464;11.764;2022-08-04T06:39:51;7.97;;;3.37;;
66129;SDS011;52930;51.464;11.764;2022-08-04T06:42:19;11.27;;;2.90;;
66129;SDS011;52930;51.464;11.764;2022-08-04T06:44:47;11.80;;;3.45;;
66129;SDS011;52930;51.464;11.764;2022-08-04T06:47:16;10.60;;;2.90;;
66129;SDS011;52930;51.464;11.764;2022-08-04T06:49:44;15.07;;;3.47;;
66129;SDS011;52930;51.464;11.764;2022-08-04T06:52:10;8.18;;;2.80;;
66129;SDS011;52930;51.464;11.764;2022-08-04T06:54:41;9.63;;;3.13;;
66129;SDS011;52930;51.464;11.764;2022-08-04T06:57:07;8.27;;;2.80;;
66129;SDS011;52930;51.464;11.764;2022-08-04T06:59:33;8.25;;;3.25;;
66129;SDS011;52930;51.464;11.764;2022-08-04T07:01:59;8.33;;;2.80;;
66129;SDS011;52930;51.464;11.764;2022-08-04T07:04:24;9.02;;;3.80;;
66129;SDS011;52930;51.464;11.764;2022-08-04T07:06:50;9.90;;;3.30;;
66129;SDS011;52930;51.464;11.764;2022-08-04T07:09:15;9.60;;;3.20;;
66129;SDS011;52930;51.464;11.764;2022-08-04T07:11:40;7.53;;;2.90;;
66129;SDS011;52930;51.464;11.764;2022-08-04T07:14:06;10.23;;;2.80;;
66129;SDS011;52930;51.464;11.764;2022-08-04T07:16:31;6.32;;;3.28;;
66129;SDS011;52930;51.464;11.764;2022-08-04T07:18:57;6.30;;;2.53;;
66129;SDS011;52930;51.464;11.764;2022-08-04T07:21:23;9.40;;;3.08;;
66129;SDS011;52930;51.464;11.764;2022-08-04T07:23:50;10.20;;;3.20;;
66129;SDS011;52930;51.464;11.764;2022-08-04T07:26:17;7.35;;;3.00;;
66129;SDS011;52930;51.464;11.764;2022-08-04T07:28:43;10.68;;;3.05;;
66129;SDS011;52930;51.464;11.764;2022-08-04T07:31:12;9.97;;;2.50;;
66129;SDS011;52930;51.464;11.764;2022-08-04T07:33:41;15.90;;;3.35;;
66129;SDS011;52930;51.464;11.764;2022-08-04T07:36:06;14.18;;;3.10;;
66129;SDS011;52930;51.464;11.764;2022-08-04T07:38:32;7.73;;;2.83;;
66129;SDS011;52930;51.464;11.764;2022-08-04T07:40:57;8.20;;;2.73;;
66129;SDS011;52930;51.464;11.764;2022-08-04T07:43:23;9.80;;;2.92;;
66129;SDS011;52930;51.464;11.764;2022-08-04T07:45:48;7.20;;;2.63;;
66129;SDS011;52930;51.464;11.764;2022-08-04T07:48:14;6.90;;;3.00;;
66129;SDS011;52930;51.464;11.764;2022-08-04T07:50:41;7.77;;;2.60;;
66129;SDS011;52930;51.464;11.764;2022-08-04T07:53:07;7.63;;;2.60;;
66129;SDS011;52930;51.464;11.764;2022-08-04T07:55:33;5.47;;;2.80;;
66129;SDS011;52930;51.464;11.764;2022-08-04T07:57:59;7.57;;;2.87;;
66129;SDS011;52930;51.464;11.764;2022-08-04T08:00:24;7.85;;;2.78;;
66129;SDS011;52930;51.464;11.764;2022-08-04T08:02:50;7.43;;;2.80;;
66129;SDS011;52930;51.464;11.764;2022-08-04T08:05:18;6.75;;;2.50;;
66129;SDS011;52930;51.464;11.764;2022-08-04T08:07:44;5.43;;;2.40;;
66129;SDS011;52930;51.464;11.764;2022-08-04T08:10:11;7.63;;;2.35;;
66129;SDS011;52930;51.464;11.764;2022-08-04T08:12:37;7.60;;;2.50;;
66129;SDS011;52930;51.464;11.764;2022-08-04T08:15:04;7.23;;;2.40;;
66129;SDS011;52930;51.464;11.764;2022-08-04T08:17:33;6.75;;;2.30;;
66129;SDS011;52930;51.464;11.764;2022-08-04T08:19:58;7.00;;;2.40;;
66129;SDS011;52930;51.464;11.764;2022-08-04T08:22:24;8.10;;;2.53;;
66129;SDS011;52930;51.464;11.764;2022-08-04T08:24:50;7.43;;;2.30;;
66129;SDS011;52930;51.464;11.764;2022-08-04T08:27:15;4.20;;;2.37;;
66129;SDS011;52930;51.464;11.764;2022-08-04T08:29:40;6.50;;;2.67;;
66129;SDS011;52930;51.464;11.764;2022-08-04T08:32:06;7.03;;;2.83;;
66129;SDS011;52930;51.464;11.764;2022-08-04T08:34:37;5.10;;;2.67;;
66129;SDS011;52930;51.464;11.764;2022-08-04T08:37:20;6.75;;;2.22;;
66129;SDS011;52930;51.464;11.764;2022-08-04T08:42:23;5.68;;;2.60;;
66129;SDS011;52930;51.464;11.764;2022-08-04T08:51:02;8.75;;;2.40;;
66129;SDS011;52930;51.464;11.764;2022-08-04T09:01:24;3.97;;;1.80;;
66129;SDS011;52930;51.464;11.764;2022-08-04T09:06:49;8.07;;;2.00;;
66129;SDS011;52930;51.464;11.764;2022-08-04T09:09:32;6.15;;;2.00;;
66129;SDS011;52930;51.464;11.764;2022-08-04T09:15:03;5.55;;;2.08;;
66129;SDS011;52930;51.464;11.764;2022-08-04T09:17:39;4.97;;;1.90;;
66129;SDS011;52930;51.464;11.764;2022-08-04T09:20:09;6.80;;;2.07;;
66129;SDS011;52930;51.464;11.764;2022-08-04T09:22:52;5.95;;;2.10;;
66129;SDS011;52930;51.464;11.764;2022-08-04T09:25:22;9.15;;;2.55;;
66129;SDS011;52930;51.464;11.764;2022-08-04T09:27:57;6.43;;;1.95;;
66129;SDS011;52930;51.464;11.764;2022-08-04T09:30:30;6.10;;;2.17;;
66129;SDS011;52930;51.464;11.764;2022-08-04T09:33:20;10.33;;;2.10;;
66129;SDS011;52930;51.464;11.764;2022-08-04T09:35:58;4.05;;;1.90;;
66129;SDS011;52930;51.464;11.764;2022-08-04T09:38:48;5.75;;;2.42;;
66129;SDS011;52930;51.464;11.764;2022-08-04T09:46:48;5.00;;;1.83;;
66129;SDS011;52930;51.464;11.764;2022-08-04T09:49:26;4.55;;;2.22;;
66129;SDS011;52930;51.464;11.764;2022-08-04T10:02:33;4.85;;;1.95;;
66129;SDS011;52930;51.464;11.764;2022-08-04T10:05:04;7.03;;;2.03;;
66129;SDS011;52930;51.464;11.764;2022-08-04T10:13:38;8.38;;;2.08;;
66129;SDS011;52930;51.464;11.764;2022-08-04T10:19:00;7.40;;;2.40;;
66129;SDS011;52930;51.464;11.764;2022-08-04T10:21:42;7.45;;;1.90;;
66129;SDS011;52930;51.464;11.764;2022-08-04T10:24:27;4.75;;;2.30;;
66129;SDS011;52930;51.464;11.764;2022-08-04T10:29:29;5.50;;;2.33;;
66129;SDS011;52930;51.464;11.764;2022-08-04T10:32:03;5.40;;;2.17;;
66129;SDS011;52930;51.464;11.764;2022-08-04T10:34:35;4.70;;;2.00;;
66129;SDS011;52930;51.464;11.764;2022-08-04T10:37:09;5.30;;;1.63;;
66129;SDS011;52930;51.464;11.764;2022-08-04T10:42:41;5.93;;;1.90;;
66129;SDS011;52930;51.464;11.764;2022-08-04T10:45:17;3.80;;;2.00;;
66129;SDS011;52930;51.464;11.764;2022-08-04T10:47:49;3.90;;;1.63;;
66129;SDS011;52930;51.464;11.764;2022-08-04T10:50:18;3.55;;;1.83;;
66129;SDS011;52930;51.464;11.764;2022-08-04T10:52:57;5.93;;;1.90;;
66129;SDS011;52930;51.464;11.764;2022-08-04T10:55:30;7.55;;;2.28;;
66129;SDS011;52930;51.464;11.764;2022-08-04T10:57:58;5.23;;;2.00;;
66129;SDS011;52930;51.464;11.764;2022-08-04T11:00:26;4.97;;;2.00;;
66129;SDS011;52930;51.464;11.764;2022-08-04T11:05:30;4.22;;;1.80;;
66129;SDS011;52930;51.464;11.764;2022-08-04T11:08:26;4.88;;;2.33;;
66129;SDS011;52930;51.464;11.764;2022-08-04T11:13:27;5.05;;;2.08;;
66129;SDS011;52930;51.464;11.764;2022-08-04T11:16:01;5.72;;;2.30;;
66129;SDS011;52930;51.464;11.764;2022-08-04T11:18:52;5.63;;;2.00;;
66129;SDS011;52930;51.464;11.764;2022-08-04T11:21:19;5.03;;;2.33;;
66129;SDS011;52930;51.464;11.764;2022-08-04T11:23:49;6.03;;;2.10;;
66129;SDS011;52930;51.464;11.764;2022-08-04T11:26:28;5.72;;;1.80;;
66129;SDS011;52930;51.464;11.764;2022-08-04T11:31:40;6.32;;;1.80;;
66129;SDS011;52930;51.464;11.764;2022-08-04T11:34:26;4.65;;;1.95;;
66129;SDS011;52930;51.464;11.764;2022-08-04T11:39:49;5.88;;;1.90;;
66129;SDS011;52930;51.464;11.764;2022-08-04T11:42:27;4.57;;;1.80;;
66129;SDS011;52930;51.464;11.764;2022-08-04T11:45:17;6.25;;;1.98;;
66129;SDS011;52930;51.464;11.764;2022-08-04T11:47:48;5.72;;;1.92;;
66129;SDS011;52930;51.464;11.764;2022-08-04T11:50:17;7.67;;;2.10;;
66129;SDS011;52930;51.464;11.764;2022-08-04T11:52:46;4.40;;;1.80;;
66129;SDS011;52930;51.464;11.764;2022-08-04T11:55:13;5.93;;;1.80;;
66129;SDS011;52930;51.464;11.764;2022-08-04T11:57:40;4.15;;;1.42;;
66129;SDS011;52930;51.464;11.764;2022-08-04T12:00:08;4.50;;;1.90;;
66129;SDS011;52930;51.464;11.764;2022-08-04T12:05:51;3.90;;;1.75;;
66129;SDS011;52930;51.464;11.764;2022-08-04T12:11:20;4.72;;;1.90;;
66129;SDS011;52930;51.464;11.764;2022-08-04T12:17:02;4.03;;;1.70;;
66129;SDS011;52930;51.464;11.764;2022-08-04T12:19:30;3.72;;;1.90;;
66129;SDS011;52930;51.464;11.764;2022-08-04T12:22:03;7.82;;;1.60;;
66129;SDS011;52930;51.464;11.764;2022-08-04T12:27:02;4.00;;;1.90;;
66129;SDS011;52930;51.464;11.764;2022-08-04T12:29:38;4.17;;;1.80;;
66129;SDS011;52930;51.464;11.764;2022-08-04T12:37:33;4.63;;;2.00;;
66129;SDS011;52930;51.464;11.764;2022-08-04T12:40:27;4.20;;;2.03;;
66129;SDS011;52930;51.464;11.764;2022-08-04T12:45:27;4.57;;;1.77;;
66129;SDS011;52930;51.464;11.764;2022-08-04T12:47:55;4.10;;;1.83;;
66129;SDS011;52930;51.464;11.764;2022-08-04T12:50:22;5.93;;;1.63;;
66129;SDS011;52930;51.464;11.764;2022-08-04T12:52:48;6.80;;;1.70;;
66129;SDS011;52930;51.464;11.764;2022-08-04T12:55:17;4.20;;;1.80;;
66129;SDS011;52930;51.464;11.764;2022-08-04T12:57:44;3.75;;;1.40;;
66129;SDS011;52930;51.464;11.764;2022-08-04T13:00:11;5.30;;;1.90;;
66129;SDS011;52930;51.464;11.764;2022-08-04T13:02:47;5.60;;;1.85;;
66129;SDS011;52930;51.464;11.764;2022-08-04T13:05:13;6.60;;;2.10;;
66129;SDS011;52930;51.464;11.764;2022-08-04T13:07:41;4.45;;;1.85;;
66129;SDS011;52930;51.464;11.764;2022-08-04T13:10:14;6.35;;;1.90;;
66129;SDS011;52930;51.464;11.764;2022-08-04T13:12:41;5.35;;;1.85;;
66129;SDS011;52930;51.464;11.764;2022-08-04T13:15:15;3.87;;;1.60;;
66129;SDS011;52930;51.464;11.764;2022-08-04T13:20:13;3.80;;;1.50;;
66129;SDS011;52930;51.464;11.764;2022-08-04T13:22:39;3.67;;;1.67;;
66129;SDS011;52930;51.464;11.764;2022-08-04T13:25:05;4.38;;;2.05;;
66129;SDS011;52930;51.464;11.764;2022-08-04T13:27:30;5.83;;;1.80;;
66129;SDS011;52930;51.464;11.764;2022-08-04T13:29:56;6.00;;;2.10;;
66129;SDS011;52930;51.464;11.764;2022-08-04T13:32:22;5.93;;;1.70;;
66129;SDS011;52930;51.464;11.764;2022-08-04T13:34:50;3.97;;;1.80;;
66129;SDS011;52930;51.464;11.764;2022-08-04T13:37:17;4.75;;;2.13;;
66129;SDS011;52930;51.464;11.764;2022-08-04T13:39:48;5.38;;;1.83;;
66129;SDS011;52930;51.464;11.764;2022-08-04T13:42:14;6.50;;;2.20;;
66129;SDS011;52930;51.464;11.764;2022-08-04T13:44:42;3.95;;;2.08;;
66129;SDS011;52930;51.464;11.764;2022-08-04T13:47:14;4.55;;;1.77;;
66129;SDS011;52930;51.464;11.764;2022-08-04T13:52:40;6.40;;;2.15;;
66129;SDS011;52930;51.464;11.764;2022-08-04T13:55:06;5.65;;;1.85;;
66129;SDS011;52930;51.464;11.764;2022-08-04T13:57:33;5.28;;;1.70;;
66129;SDS011;52930;51.464;11.764;2022-08-04T14:00:03;5.93;;;1.98;;
66129;SDS011;52930;51.464;11.764;2022-08-04T14:02:33;4.87;;;1.63;;
66129;SDS011;52930;51.464;11.764;2022-08-04T14:05:06;4.50;;;1.85;;
66129;SDS011;52930;51.464;11.764;2022-08-04T14:07:33;6.65;;;1.60;;
66129;SDS011;52930;51.464;11.764;2022-08-04T14:10:09;4.03;;;2.03;;
66129;SDS011;52930;51.464;11.764;2022-08-04T14:12:35;5.82;;;2.00;;
66129;SDS011;52930;51.464;11.764;2022-08-04T14:15:08;5.73;;;1.90;;
66129;SDS011;52930;51.464;11.764;2022-08-04T14:17:55;3.60;;;1.60;;
66129;SDS011;52930;51.464;11.764;2022-08-04T14:20:56;5.78;;;2.17;;
66129;SDS011;52930;51.464;11.764;2022-08-04T14:23:26;4.82;;;1.88;;
66129;SDS011;52930;51.464;11.764;2022-08-04T14:25:52;4.85;;;1.88;;
66129;SDS011;52930;51.464;11.764;2022-08-04T14:28:27;5.90;;;1.90;;
66129;SDS011;52930;51.464;11.764;2022-08-04T14:31:07;6.22;;;1.95;;
66129;SDS011;52930;51.464;11.764;2022-08-04T14:33:38;7.43;;;1.90;;
66129;SDS011;52930;51.464;11.764;2022-08-04T14:36:05;6.20;;;1.70;;
66129;SDS011;52930;51.464;11.764;2022-08-04T14:41:15;6.65;;;1.70;;
66129;SDS011;52930;51.464;11.764;2022-08-04T14:43:43;4.57;;;1.80;;
66129;SDS011;52930;51.464;11.764;2022-08-04T14:46:19;4.20;;;1.80;;
66129;SDS011;52930;51.464;11.764;2022-08-04T14:49:01;5.97;;;1.88;;
66129;SDS011;52930;51.464;11.764;2022-08-04T14:51:38;4.03;;;1.80;;
66129;SDS011;52930;51.464;11.764;2022-08-04T14:54:04;4.72;;;1.80;;
66129;SDS011;52930;51.464;11.764;2022-08-04T14:56:30;4.47;;;2.03;;
66129;SDS011;52930;51.464;11.764;2022-08-04T14:59:04;5.65;;;2.00;;
66129;SDS011;52930;51.464;11.764;2022-08-04T15:01:35;7.28;;;1.85;;
66129;SDS011;52930;51.464;11.764;2022-08-04T15:04:02;5.25;;;1.95;;
66129;SDS011;52930;51.464;11.764;2022-08-04T15:06:29;5.70;;;1.88;;
66129;SDS011;52930;51.464;11.764;2022-08-04T15:08:57;6.03;;;1.73;;
66129;SDS011;52930;51.464;11.764;2022-08-04T15:11:24;5.40;;;2.00;;
66129;SDS011;52930;51.464;11.764;2022-08-04T15:13:51;3.90;;;1.75;;
66129;SDS011;52930;51.464;11.764;2022-08-04T15:16:17;6.20;;;1.80;;
66129;SDS011;52930;51.464;11.764;2022-08-04T15:18:43;4.97;;;1.80;;
66129;SDS011;52930;51.464;11.764;2022-08-04T15:21:08;6.97;;;2.00;;
66129;SDS011;52930;51.464;11.764;2022-08-04T15:23:34;6.07;;;1.75;;
66129;SDS011;52930;51.464;11.764;2022-08-04T15:26:01;6.00;;;1.60;;
66129;SDS011;52930;51.464;11.764;2022-08-04T15:28:27;5.45;;;1.80;;
66129;SDS011;52930;51.464;11.764;2022-08-04T15:30:53;4.73;;;2.03;;
66129;SDS011;52930;51.464;11.764;2022-08-04T15:33:19;8.30;;;2.33;;
66129;SDS011;52930;51.464;11.764;2022-08-04T15:35:49;3.53;;;1.98;;
66129;SDS011;52930;51.464;11.764;2022-08-04T15:38:26;6.43;;;1.80;;
66129;SDS011;52930;51.464;11.764;2022-08-04T15:40:58;4.28;;;1.73;;
66129;SDS011;52930;51.464;11.764;2022-08-04T15:43:42;4.20;;;1.77;;
66129;SDS011;52930;51.464;11.764;2022-08-04T15:46:11;6.40;;;1.90;;
66129;SDS011;52930;51.464;11.764;2022-08-04T15:48:37;5.00;;;1.83;;
66129;SDS011;52930;51.464;11.764;2022-08-04T15:51:04;4.40;;;2.20;;
66129;SDS011;52930;51.464;11.764;2022-08-04T15:56:41;5.05;;;2.08;;
66129;SDS011;52930;51.464;11.764;2022-08-04T15:58:49;6.03;;;1.77;;
66129;SDS011;52930;51.464;11.764;2022-08-04T16:01:16;5.65;;;2.08;;
66129;SDS011;52930;51.464;11.764;2022-08-04T16:03:44;4.30;;;1.83;;
66129;SDS011;52930;51.464;11.764;2022-08-04T16:14:20;5.38;;;2.20;;
66129;SDS011;52930;51.464;11.764;2022-08-04T16:19:06;3.70;;;1.70;;
66129;SDS011;52930;51.464;11.764;2022-08-04T16:21:33;5.18;;;1.80;;
66129;SDS011;52930;51.464;11.764;2022-08-04T16:24:21;5.75;;;1.90;;
66129;SDS011;52930;51.464;11.764;2022-08-04T16:27:00;4.57;;;2.10;;
66129;SDS011;52930;51.464;11.764;2022-08-04T16:32:18;5.72;;;1.80;;
66129;SDS011;52930;51.464;11.764;2022-08-04T16:34:47;8.00;;;1.75;;
66129;SDS011;52930;51.464;11.764;2022-08-04T16:37:21;4.60;;;1.92;;
66129;SDS011;52930;51.464;11.764;2022-08-04T16:39:48;5.87;;;2.23;;
66129;SDS011;52930;51.464;11.764;2022-08-04T16:42:30;3.95;;;1.77;;
66129;SDS011;52930;51.464;11.764;2022-08-04T16:48:20;4.45;;;1.63;;
66129;SDS011;52930;51.464;11.764;2022-08-04T16:50:27;6.05;;;2.10;;
66129;SDS011;52930;51.464;11.764;2022-08-04T16:52:53;4.10;;;1.85;;
66129;SDS011;52930;51.464;11.764;2022-08-04T16:55:20;3.63;;;1.90;;
66129;SDS011;52930;51.464;11.764;2022-08-04T16:57:50;8.27;;;1.98;;
66129;SDS011;52930;51.464;11.764;2022-08-04T17:00:17;4.28;;;1.85;;
66129;SDS011;52930;51.464;11.764;2022-08-04T17:02:42;7.10;;;1.60;;
66129;SDS011;52930;51.464;11.764;2022-08-04T17:05:19;4.72;;;1.80;;
66129;SDS011;52930;51.464;11.764;2022-08-04T17:07:49;3.50;;;1.43;;
66129;SDS011;52930;51.464;11.764;2022-08-04T17:10:18;6.18;;;1.85;;
66129;SDS011;52930;51.464;11.764;2022-08-04T17:12:44;5.10;;;2.08;;
66129;SDS011;52930;51.464;11.764;2022-08-04T17:15:22;5.00;;;1.80;;
66129;SDS011;52930;51.464;11.764;2022-08-04T17:17:48;9.30;;;2.10;;
66129;SDS011;52930;51.464;11.764;2022-08-04T17:20:14;4.53;;;2.07;;
66129;SDS011;52930;51.464;11.764;2022-08-04T17:22:40;14.63;;;2.40;;
66129;SDS011;52930;51.464;11.764;2022-08-04T17:25:06;18.58;;;2.35;;
66129;SDS011;52930;51.464;11.764;2022-08-04T17:27:31;7.90;;;1.93;;
66129;SDS011;52930;51.464;11.764;2022-08-04T17:29:57;6.63;;;2.20;;
66129;SDS011;52930;51.464;11.764;2022-08-04T17:32:22;6.10;;;2.00;;
66129;SDS011;52930;51.464;11.764;2022-08-04T17:34:48;4.13;;;1.93;;
66129;SDS011;52930;51.464;11.764;2022-08-04T17:37:15;5.60;;;2.10;;
66129;SDS011;52930;51.464;11.764;2022-08-04T17:39:41;7.45;;;1.90;;
66129;SDS011;52930;51.464;11.764;2022-08-04T17:42:07;3.90;;;1.83;;
66129;SDS011;52930;51.464;11.764;2022-08-04T17:44:36;6.23;;;2.33;;
66129;SDS011;52930;51.464;11.764;2022-08-04T17:47:15;5.10;;;2.00;;
66129;SDS011;52930;51.464;11.764;2022-08-04T17:49:42;3.63;;;1.70;;
66129;SDS011;52930;51.464;11.764;2022-08-04T17:52:07;6.47;;;2.00;;
66129;SDS011;52930;51.464;11.764;2022-08-04T17:54:43;5.97;;;2.00;;
66129;SDS011;52930;51.464;11.764;2022-08-04T17:57:13;5.70;;;2.00;;
66129;SDS011;52930;51.464;11.764;2022-08-04T17:59:43;6.20;;;2.20;;
66129;SDS011;52930;51.464;11.764;2022-08-04T18:02:22;3.78;;;1.90;;
66129;SDS011;52930;51.464;11.764;2022-08-04T18:07:18;5.10;;;2.08;;
66129;SDS011;52930;51.464;11.764;2022-08-04T18:09:52;8.53;;;1.90;;
66129;SDS011;52930;51.464;11.764;2022-08-04T18:14:55;6.60;;;2.10;;
66129;SDS011;52930;51.464;11.764;2022-08-04T18:17:31;10.75;;;2.05;;
66129;SDS011;52930;51.464;11.764;2022-08-04T18:19:59;4.20;;;1.90;;
66129;SDS011;52930;51.464;11.764;2022-08-04T18:22:24;6.37;;;2.20;;
66129;SDS011;52930;51.464;11.764;2022-08-04T18:24:50;5.88;;;1.77;;
66129;SDS011;52930;51.464;11.764;2022-08-04T18:27:16;12.33;;;2.00;;
66129;SDS011;52930;51.464;11.764;2022-08-04T18:29:43;7.03;;;1.75;;
66129;SDS011;52930;51.464;11.764;2022-08-04T18:32:08;4.07;;;1.90;;
66129;SDS011;52930;51.464;11.764;2022-08-04T18:34:34;6.03;;;1.88;;
66129;SDS011;52930;51.464;11.764;2022-08-04T18:36:59;4.07;;;1.63;;
66129;SDS011;52930;51.464;11.764;2022-08-04T18:39:25;7.33;;;3.00;;
66129;SDS011;52930;51.464;11.764;2022-08-04T18:41:52;7.57;;;2.42;;
66129;SDS011;52930;51.464;11.764;2022-08-04T18:44:17;95.37;;;6.03;;
66129;SDS011;52930;51.464;11.764;2022-08-04T18:46:43;132.73;;;7.40;;
66129;SDS011;52930;51.464;11.764;2022-08-04T18:49:08;127.10;;;7.93;;
66129;SDS011;52930;51.464;11.764;2022-08-04T18:51:34;111.07;;;8.00;;